Marengo, IA (52301)

6:17 AM CDT on July 30, 2016 (GMT -0500)
South West Btown | | Change Station

Elev 866 ft 41.91 °N, 92.09 °W | Updated 22 seconds ago

Overcast
Overcast
66.0 °F
Feels Like 66.0 °F
N
0.0
Wind Variable Wind from North
Gusts 0.0 mph

Today
High -- | Low -- °F
--% Chance of Precip.
Yesterday
High -- | Low -- °F
Precip. -- in
Pressure 29.99 in
Visibility 10.0 miles
Clouds Overcast 3900 ft
Dew Point 65 °F
Humidity 97%
Rainfall 0.05 in
Snow Depth Not available.
6:00 AM 8:27 PM
Waning Crescent, 14% visible
SPECI KCID 301059Z 05006KT 10SM OVC039 19/19 A2999 RMK AO2 T01940189
Pressure 29.99 in
Visibility 10.0 miles
Clouds Overcast 3900 ft
Dew Point 65 °F
Humidity 97%
Rainfall 0.05 in
Snow Depth Not available.
6:00 AM 8:27 PM
Waning Crescent, 14% visible
SPECI KCID 301059Z 05006KT 10SM OVC039 19/19 A2999 RMK AO2 T01940189

10-Day Weather Forecast

Almanac

Astronomy

Jul. 30, 2016 Rise Set
Actual Time
Civil Twilight
Nautical Twilight
Astronomical Twilight
Moon
Length of Visible Light
Length of Day
Tomorrow will be .
, % of the Moon is Illuminated

Today's Extremes

State Highs State Lows

Community

WunderPhotos

Upload Photos

1,928,530 photos uploaded!

WunderBlog® & News

Nearby

Air Quality

  Air Quality AQ Index Pollutant
Not available.

Snow Depth

Station Depth Elevation

Earthquake Activity

City Distance Mag. Time & Date
Minimum magnitude displayed is 2.5.

Coastal Water Temperatures

Place Temperature

Stations

Nearby Weather Stations

Station Location Temp. Windchill Dew Point Humidity Wind Precip. Elev Updated Type
                   

Watches & Warnings

There are currently no watches in effect.